This is the latest recevied weather packets stored in our database for station/object WO5CID. If no packets are shown the sender has not sent any weather packets the latest 10 day(s).
| Time | Temp. | Humidity | Pressure | Rain* | Wind** | Luminosity | Snow |
|---|---|---|---|---|---|---|---|
| 1777930102 | 27.78° C | 40% | 1014.9 hPa | 0 mm | - | 114 W/m² | - |
| 1777929797 | 27.78° C | 42% | 1014.8 hPa | 0 mm | - | 299 W/m² | - |
| 1777929496 | 27.78° C | 40% | 1015 hPa | 0 mm | - | 522 W/m² | - |
| 1777929191 | 27.78° C | 40% | 1014.8 hPa | 0 mm | - | 489 W/m² | - |
| 1777928889 | 27.78° C | 40% | 1015 hPa | 0 mm | - | 379 W/m² | - |
| 1777928586 | 27.78° C | 41% | 1015 hPa | 0 mm | - | 538 W/m² | - |
| 1777928283 | 27.22° C | 41% | 1015 hPa | 0 mm | - | 552 W/m² | - |
| 1777927981 | 27.78° C | 40% | 1015.3 hPa | 0 mm | - | 607 W/m² | - |
| 1777927679 | 28.33° C | 38% | 1015.2 hPa | 0 mm | - | 605 W/m² | - |
| 1777927377 | 28.33° C | 39% | 1015.1 hPa | 0 mm | - | 462 W/m² | - |
| 1777927076 | 28.89° C | 38% | 1015.1 hPa | 0 mm | - | 165 W/m² | - |
| 1777926772 | 28.33° C | 37% | 1015.1 hPa | 0 mm | - | 706 W/m² | - |
| 1777926467 | 28.33° C | 38% | 1015.3 hPa | 0 mm | - | 664 W/m² | - |
| 1777926165 | 28.89° C | 36% | 1015.5 hPa | 0 mm | - | 672 W/m² | - |
| 1777925862 | 28.89° C | 37% | 1015.1 hPa | 0 mm | - | 687 W/m² | - |
| 1777925559 | 27.78° C | 41% | 1015.6 hPa | 0 mm | - | 714 W/m² | - |
| 1777925257 | 26.67° C | 42% | 1015.5 hPa | 0 mm | - | 758 W/m² | - |
| 1777924952 | 27.78° C | 39% | 1015.4 hPa | 0 mm | - | 221 W/m² | - |
| 1777924649 | 28.33° C | 38% | 1015.6 hPa | 0 mm | - | 259 W/m² | - |
| 1777924345 | 27.78° C | 38% | 1015.3 hPa | 0 mm | - | 820 W/m² | - |
| 1777924042 | 27.22° C | 39% | 1015.5 hPa | 0 mm | - | 835 W/m² | - |
| 1777923738 | 28.33° C | 37% | 1015.8 hPa | 0 mm | - | 183 W/m² | - |
| 1777923435 | 27.22° C | 39% | 1015.9 hPa | 0 mm | - | 907 W/m² | - |
| 1777923132 | 27.22° C | 38% | 1015.8 hPa | 0 mm | - | 246 W/m² | - |
| 1777922831 | 27.78° C | 37% | 1015.9 hPa | 0 mm | - | 226 W/m² | - |
* Rain latest hour (hover to see other rain measurements)
** Current wind speed in m/s (hover to see current wind gust speed)